createdAt,value
2019-04-10T00:01:40.528Z,14.10
2019-04-10T00:04:10.502Z,16.40
2019-04-10T00:06:40.149Z,33.78
2019-04-10T00:09:10.584Z,17.25
2019-04-10T00:11:40.978Z,21.90
2019-04-10T00:14:10.695Z,16.97
2019-04-10T00:16:40.492Z,18.92
2019-04-10T00:19:10.684Z,15.58
2019-04-10T00:21:40.434Z,16.15
2019-04-10T00:24:10.089Z,18.42
2019-04-10T00:26:39.742Z,16.05
2019-04-10T00:29:09.318Z,12.75
2019-04-10T00:31:38.960Z,16.73
2019-04-10T00:34:09.399Z,14.15
2019-04-10T00:36:39.425Z,15.00
2019-04-10T00:39:10.516Z,15.50
2019-04-10T00:41:40.692Z,13.77
2019-04-10T00:44:11.355Z,16.23
2019-04-10T00:46:40.949Z,17.15
2019-04-10T00:49:10.535Z,15.08
2019-04-10T00:51:40.253Z,16.17
2019-04-10T00:54:09.918Z,15.60
2019-04-10T00:56:39.423Z,17.65
2019-04-10T00:59:10.191Z,21.85
2019-04-10T01:01:40.247Z,16.37
2019-04-10T01:04:10.579Z,13.15
2019-04-10T01:06:40.421Z,15.35
2019-04-10T01:09:10.836Z,14.03
2019-04-10T01:11:41.404Z,15.08
2019-04-10T01:14:11.655Z,16.10
2019-04-10T01:16:41.819Z,15.10
2019-04-10T01:19:12.080Z,17.70
2019-04-10T01:21:42.224Z,19.30
2019-04-10T01:24:11.932Z,17.17
2019-04-10T01:26:41.516Z,17.42
2019-04-10T01:29:11.366Z,18.85
2019-04-10T01:31:41.457Z,17.82
2019-04-10T01:34:11.490Z,18.75
2019-04-10T01:36:41.328Z,18.00
2019-04-10T01:39:13.731Z,22.55
2019-04-10T01:41:43.894Z,21.42
2019-04-10T01:44:15.314Z,20.03
2019-04-10T01:46:45.224Z,22.67
2019-04-10T01:49:15.648Z,24.60
2019-04-10T01:51:45.594Z,24.37
2019-04-10T01:54:15.315Z,23.77
2019-04-10T01:56:47.971Z,23.42
2019-04-10T01:59:19.372Z,26.35
2019-04-10T02:01:59.493Z,24.15
2019-04-10T02:04:29.178Z,25.17
2019-04-10T02:06:58.759Z,24.30
2019-04-10T02:09:28.352Z,25.82
2019-04-10T02:11:58.534Z,27.10
2019-04-10T02:14:28.171Z,27.20
2019-04-10T02:16:58.978Z,27.60
2019-04-10T02:19:28.625Z,27.62
2019-04-10T02:21:58.277Z,31.55
2019-04-10T02:24:27.884Z,35.25
2019-04-10T02:26:58.179Z,34.58
2019-04-10T02:29:28.094Z,31.30
2019-04-10T02:31:57.801Z,30.90
2019-04-10T02:34:28.377Z,29.72
2019-04-10T02:37:00.622Z,27.67
2019-04-10T02:39:38.163Z,29.15
2019-04-10T02:42:03.013Z,30.37
2019-04-10T02:44:33.096Z,29.05
2019-04-10T02:47:04.210Z,30.30
2019-04-10T02:49:34.165Z,29.45
2019-04-10T02:52:04.151Z,32.70
2019-04-10T02:54:35.497Z,31.57
2019-04-10T02:57:05.488Z,31.30
2019-04-10T02:59:35.436Z,30.12
2019-04-10T03:02:06.395Z,29.77
2019-04-10T03:04:37.216Z,33.63
2019-04-10T03:07:07.595Z,31.10
2019-04-10T03:09:53.296Z,28.40
2019-04-10T03:12:11.009Z,30.30
2019-04-10T03:14:45.236Z,29.97
2019-04-10T03:17:13.041Z,32.28
2019-04-10T03:19:43.461Z,29.92
2019-04-10T03:22:13.566Z,32.60
2019-04-10T03:24:44.089Z,36.58
2019-04-10T03:27:16.316Z,33.63
2019-04-10T03:29:46.336Z,34.90
2019-04-10T03:32:36.517Z,31.50
2019-04-10T03:35:26.980Z,33.70
2019-04-10T03:37:57.393Z,34.03
2019-04-10T03:40:27.171Z,35.45
2019-04-10T03:42:57.175Z,38.40
2019-04-10T03:45:26.857Z,35.17
2019-04-10T03:47:56.426Z,38.28
2019-04-10T03:50:25.941Z,35.17
2019-04-10T03:52:55.901Z,35.05
2019-04-10T03:55:25.741Z,37.42
2019-04-10T03:57:55.394Z,37.20
2019-04-10T04:00:25.863Z,33.67
2019-04-10T04:02:56.038Z,34.98
2019-04-10T04:05:26.689Z,34.48
2019-04-10T04:07:59.085Z,33.50
2019-04-10T04:10:28.886Z,36.73
2019-04-10T04:12:59.999Z,37.53
2019-04-10T04:15:30.303Z,38.30
2019-04-10T04:18:00.331Z,31.20
2019-04-10T04:20:30.727Z,36.38
2019-04-10T04:23:01.379Z,31.42
2019-04-10T04:25:32.409Z,32.13
2019-04-10T04:28:02.572Z,34.48
2019-04-10T04:30:34.051Z,33.30
2019-04-10T04:33:04.655Z,27.45
2019-04-10T04:35:34.671Z,32.48
2019-04-10T04:38:05.857Z,31.52
2019-04-10T04:40:35.676Z,31.90
2019-04-10T04:43:05.621Z,25.55
2019-04-10T04:45:35.504Z,23.22
2019-04-10T04:48:05.940Z,23.73
2019-04-10T04:50:35.768Z,20.02
2019-04-10T04:53:06.542Z,18.05
2019-04-10T04:55:37.385Z,16.05
2019-04-10T04:58:07.307Z,16.25
2019-04-10T05:00:37.493Z,20.20
2019-04-10T05:03:07.768Z,16.62
2019-04-10T05:05:37.495Z,16.05
2019-04-10T05:08:09.846Z,21.23
2019-04-10T05:10:38.287Z,17.90
2019-04-10T05:13:08.196Z,20.65
2019-04-10T05:15:37.819Z,27.32
2019-04-10T05:18:08.438Z,18.55
2019-04-10T05:20:50.977Z,20.48
2019-04-10T05:23:20.629Z,21.33
2019-04-10T05:25:50.206Z,24.75
2019-04-10T05:28:20.387Z,24.67
2019-04-10T05:30:50.615Z,26.37
2019-04-10T05:33:20.586Z,27.10
2019-04-10T05:35:50.855Z,26.00
2019-04-10T05:38:20.838Z,30.88
2019-04-10T05:40:50.751Z,25.82
2019-04-10T05:43:20.404Z,31.05
2019-04-10T05:45:50.694Z,27.87
2019-04-10T05:48:22.512Z,25.80
2019-04-10T05:50:57.620Z,25.52
2019-04-10T05:53:22.849Z,22.85
2019-04-10T05:55:52.516Z,22.65
2019-04-10T05:58:22.098Z,30.25
2019-04-10T06:00:51.837Z,27.40
2019-04-10T06:03:21.713Z,29.02
2019-04-10T06:05:52.496Z,25.50
2019-04-10T06:08:22.163Z,29.23
2019-04-10T06:10:52.013Z,23.00
2019-04-10T06:13:22.779Z,25.50
2019-04-10T06:15:52.963Z,27.00
2019-04-10T06:18:22.877Z,28.30
2019-04-10T06:20:54.497Z,29.20
2019-04-10T06:23:25.332Z,32.15
2019-04-10T06:25:56.346Z,32.15
2019-04-10T06:28:27.510Z,30.80
2019-04-10T06:30:58.595Z,35.73
2019-04-10T06:33:28.512Z,33.33
2019-04-10T06:35:58.101Z,32.13
2019-04-10T06:38:28.715Z,33.67
2019-04-10T06:40:58.376Z,36.40
2019-04-10T06:43:28.783Z,36.08
2019-04-10T06:45:58.482Z,34.78
2019-04-10T06:48:28.205Z,33.65
2019-04-10T06:50:57.799Z,34.80
2019-04-10T06:53:27.528Z,37.17
2019-04-10T06:55:57.173Z,45.12
2019-04-10T06:58:27.613Z,34.38
2019-04-10T07:00:58.310Z,34.83
2019-04-10T07:03:45.080Z,34.33
2019-04-10T07:06:07.666Z,32.10
2019-04-10T07:08:31.951Z,31.62
2019-04-10T07:11:07.762Z,32.75
2019-04-10T07:13:37.632Z,31.93
2019-04-10T07:16:04.597Z,27.95
2019-04-10T07:18:37.037Z,28.23
2019-04-10T07:21:06.466Z,29.60
2019-04-10T07:23:36.598Z,29.60
2019-04-10T07:26:06.296Z,27.15
2019-04-10T07:28:37.812Z,24.07
2019-04-10T07:31:09.778Z,25.77
2019-04-10T07:33:38.678Z,24.87
2019-04-10T07:36:11.378Z,25.85
2019-04-10T07:38:39.614Z,28.47
2019-04-10T07:41:14.357Z,24.43
2019-04-10T07:43:40.658Z,22.90
2019-04-10T07:46:10.375Z,19.25
2019-04-10T07:48:39.902Z,20.95
2019-04-10T07:51:09.495Z,21.10
2019-04-10T07:53:39.458Z,28.87
2019-04-10T07:56:14.953Z,28.00
2019-04-10T07:58:42.089Z,22.70
2019-04-10T08:01:12.011Z,19.20
2019-04-10T08:03:41.705Z,22.05
2019-04-10T08:06:11.393Z,20.55
2019-04-10T08:08:41.055Z,17.95
2019-04-10T08:11:10.710Z,22.17
2019-04-10T08:13:40.762Z,18.15
2019-04-10T08:16:10.590Z,18.48
2019-04-10T08:18:40.496Z,18.37
2019-04-10T08:21:11.240Z,22.07
2019-04-10T08:23:41.054Z,20.43
2019-04-10T08:26:10.782Z,14.55
2019-04-10T08:28:41.307Z,13.05
2019-04-10T08:31:10.981Z,8.90
2019-04-10T08:33:40.574Z,10.88
2019-04-10T08:36:10.903Z,10.38
2019-04-10T08:38:42.136Z,10.85
2019-04-10T08:41:12.853Z,7.85
2019-04-10T08:43:42.896Z,9.33
2019-04-10T08:46:12.905Z,11.60
2019-04-10T08:48:43.560Z,10.15
2019-04-10T08:51:13.065Z,11.48
2019-04-10T08:53:42.787Z,9.23
2019-04-10T08:56:12.992Z,11.38
2019-04-10T08:58:43.310Z,11.08
2019-04-10T09:01:13.300Z,10.45
2019-04-10T09:03:44.009Z,12.50
2019-04-10T09:06:13.648Z,12.45
2019-04-10T09:08:43.589Z,15.18
2019-04-10T09:11:13.327Z,15.48
2019-04-10T09:13:44.384Z,17.48
2019-04-10T09:16:14.165Z,19.98
2019-04-10T09:18:43.813Z,17.65
2019-04-10T09:21:13.452Z,18.07
2019-04-10T09:23:50.252Z,20.88
2019-04-10T09:26:15.437Z,44.65
2019-04-10T09:28:46.548Z,22.22
2019-04-10T09:31:16.398Z,19.52
2019-04-10T09:33:47.358Z,20.00
2019-04-10T09:36:18.140Z,17.02
2019-04-10T09:38:48.074Z,19.75
2019-04-10T09:41:17.802Z,20.10
2019-04-10T09:43:47.722Z,19.15
2019-04-10T09:46:18.484Z,19.37
2019-04-10T09:48:47.992Z,20.50
2019-04-10T09:51:19.246Z,17.95
2019-04-10T09:53:48.989Z,21.17
2019-04-10T09:56:19.303Z,16.48
2019-04-10T09:58:49.149Z,19.02
2019-04-10T10:01:19.873Z,20.35
2019-04-10T10:03:50.708Z,19.57
2019-04-10T10:06:27.040Z,21.55
2019-04-10T10:08:52.289Z,23.42
2019-04-10T10:11:22.255Z,23.73
2019-04-10T10:13:52.876Z,24.02
2019-04-10T10:16:23.829Z,25.70
2019-04-10T10:18:53.974Z,27.97
2019-04-10T10:21:24.142Z,23.12
2019-04-10T10:23:54.075Z,40.75
2019-04-10T10:26:24.010Z,25.55
2019-04-10T10:28:54.600Z,25.48
2019-04-10T10:31:24.486Z,26.77
2019-04-10T10:33:55.068Z,26.45
2019-04-10T10:36:34.679Z,27.25
2019-04-10T10:39:04.902Z,28.83
2019-04-10T10:41:27.373Z,28.27
2019-04-10T10:43:56.973Z,29.25
2019-04-10T10:46:27.260Z,31.42
2019-04-10T10:48:56.997Z,28.83
2019-04-10T10:51:26.821Z,25.90
2019-04-10T10:53:56.672Z,27.02
2019-04-10T10:56:28.646Z,27.48
2019-04-10T10:58:58.975Z,26.57
2019-04-10T11:01:31.674Z,30.43
2019-04-10T11:04:02.514Z,27.15
2019-04-10T11:06:33.142Z,27.58
2019-04-10T11:09:04.105Z,27.07
2019-04-10T11:11:35.097Z,30.20
2019-04-10T11:14:06.073Z,27.00
2019-04-10T11:16:36.603Z,27.75
2019-04-10T11:19:06.932Z,28.05
2019-04-10T11:21:36.549Z,24.72
2019-04-10T11:24:06.980Z,27.17
2019-04-10T11:26:37.683Z,25.32
2019-04-10T11:29:08.024Z,25.52
2019-04-10T11:31:38.249Z,26.82
2019-04-10T11:34:11.287Z,25.65
2019-04-10T11:36:42.530Z,26.15
2019-04-10T11:39:21.901Z,26.65
2019-04-10T11:41:45.630Z,23.57
2019-04-10T11:44:17.177Z,22.90
2019-04-10T11:46:46.279Z,25.85
2019-04-10T11:49:17.811Z,20.40
2019-04-10T11:51:48.671Z,23.70
2019-04-10T11:54:25.047Z,23.02
2019-04-10T11:56:56.118Z,25.20
2019-04-10T12:01:58.956Z,18.23
2019-04-10T12:04:29.565Z,11.90
2019-04-10T12:07:01.409Z,12.20
2019-04-10T12:10:49.273Z,13.43
2019-04-10T12:12:01.610Z,20.70
2019-04-10T12:14:31.899Z,16.55
2019-04-10T12:17:03.994Z,20.25
2019-04-10T12:19:33.570Z,24.80
2019-04-10T12:22:03.245Z,19.30
2019-04-10T12:24:32.981Z,18.27
2019-04-10T12:27:02.610Z,22.82
2019-04-10T12:29:33.003Z,24.23
2019-04-10T12:32:04.211Z,25.90
2019-04-10T12:34:34.139Z,31.23
2019-04-10T12:37:04.961Z,29.20
2019-04-10T12:39:34.664Z,33.80
2019-04-10T12:42:04.322Z,24.50
2019-04-10T12:44:33.893Z,19.77
2019-04-10T12:47:03.845Z,22.07
2019-04-10T12:49:35.991Z,37.80
2019-04-10T12:52:08.035Z,28.87
2019-04-10T12:54:40.208Z,23.95
2019-04-10T12:57:12.677Z,30.92
2019-04-10T12:59:45.821Z,29.27
2019-04-10T13:02:16.350Z,28.23
2019-04-10T13:04:47.033Z,26.95
2019-04-10T13:07:16.738Z,27.52
2019-04-10T13:09:46.403Z,28.95
2019-04-10T13:12:18.758Z,27.40
2019-04-10T13:14:48.626Z,28.62
2019-04-10T13:17:19.996Z,27.82
2019-04-10T13:19:51.380Z,24.27
2019-04-10T13:22:20.741Z,27.40
2019-04-10T13:24:52.112Z,24.12
2019-04-10T13:27:24.800Z,21.93
2019-04-10T13:29:54.509Z,21.23
2019-04-10T13:32:25.749Z,19.87
2019-04-10T13:34:55.548Z,22.57
2019-04-10T13:37:26.260Z,19.80
2019-04-10T13:39:55.858Z,17.32
2019-04-10T13:42:25.432Z,18.73
2019-04-10T13:44:55.852Z,18.50
2019-04-10T13:47:25.839Z,17.50
2019-04-10T13:49:55.497Z,18.70
2019-04-10T13:52:26.554Z,22.27
2019-04-10T13:54:56.148Z,20.23
2019-04-10T13:57:26.471Z,20.00
2019-04-10T13:59:57.384Z,19.20
2019-04-10T14:02:30.817Z,17.92
2019-04-10T14:05:01.065Z,20.43
2019-04-10T14:07:31.625Z,24.02
2019-04-10T14:10:02.858Z,20.77
2019-04-10T14:12:33.330Z,22.57
2019-04-10T14:15:04.823Z,22.73
2019-04-10T14:17:36.168Z,23.83
2019-04-10T14:20:07.063Z,21.33
2019-04-10T14:22:40.039Z,21.62
2019-04-10T14:27:42.548Z,18.15
2019-04-10T14:30:13.992Z,11.60
2019-04-10T14:32:43.751Z,6.72
2019-04-10T14:35:13.388Z,6.22
2019-04-10T14:37:43.416Z,6.78
2019-04-10T14:40:13.907Z,8.20
2019-04-10T14:42:43.613Z,5.42
2019-04-10T14:45:13.353Z,4.78
2019-04-10T14:47:43.455Z,7.28
2019-04-10T14:50:13.662Z,5.28
2019-04-10T14:52:43.396Z,6.17
2019-04-10T14:55:13.050Z,6.45
2019-04-10T14:57:43.251Z,7.55
2019-04-10T15:00:26.539Z,7.00
2019-04-10T15:02:58.018Z,9.18
2019-04-10T15:05:29.968Z,7.63
2019-04-10T15:07:59.710Z,9.15
2019-04-10T15:10:29.417Z,8.23
2019-04-10T15:13:09.204Z,7.42
2019-04-10T15:15:32.450Z,8.68
2019-04-10T15:18:02.498Z,7.60
2019-04-10T15:20:33.392Z,11.22
2019-04-10T15:23:03.263Z,8.00
2019-04-10T15:25:33.247Z,7.12
2019-04-10T15:28:04.272Z,6.25
2019-04-10T15:30:34.740Z,4.53
2019-04-10T15:33:04.607Z,5.03
2019-04-10T15:35:34.864Z,5.53
2019-04-10T15:38:04.632Z,5.72
2019-04-10T15:40:34.442Z,5.10
2019-04-10T15:43:04.939Z,6.78
2019-04-10T15:45:35.698Z,9.73
2019-04-10T15:48:05.564Z,5.83
2019-04-10T15:50:35.230Z,4.17
2019-04-10T15:53:04.841Z,5.40
2019-04-10T15:55:34.503Z,4.05
2019-04-10T15:58:06.715Z,4.12
2019-04-10T16:00:37.123Z,5.03
2019-04-10T16:03:07.119Z,5.25
2019-04-10T16:05:37.871Z,4.35
2019-04-10T16:08:10.024Z,4.20
2019-04-10T16:10:41.415Z,6.53
2019-04-10T16:13:21.987Z,5.70
2019-04-10T16:15:53.141Z,6.17
2019-04-10T16:18:26.891Z,6.85
2019-04-10T16:20:56.638Z,7.85
2019-04-10T16:23:29.044Z,6.35
2019-04-10T16:25:59.018Z,9.90
2019-04-10T16:28:29.311Z,5.30
2019-04-10T16:30:59.321Z,5.35
2019-04-10T16:33:29.437Z,7.47
2019-04-10T16:35:59.177Z,8.33
2019-04-10T16:38:28.990Z,9.35
2019-04-10T16:40:58.705Z,7.92
2019-04-10T16:43:28.535Z,6.25
2019-04-10T16:45:59.360Z,5.22
2019-04-10T16:48:29.272Z,5.62
2019-04-10T16:50:59.700Z,5.47
2019-04-10T16:53:29.917Z,5.58
2019-04-10T16:56:00.973Z,7.65
2019-04-10T17:01:02.820Z,6.35
2019-04-10T17:03:33.834Z,7.20
2019-04-10T17:06:03.975Z,8.63
2019-04-10T17:08:34.317Z,6.95
2019-04-10T17:11:05.563Z,7.67
2019-04-10T17:13:36.758Z,5.37
2019-04-10T17:16:07.330Z,9.78
2019-04-10T17:18:37.174Z,8.45
2019-04-10T17:21:06.781Z,4.15
2019-04-10T17:23:36.433Z,4.60
2019-04-10T17:26:06.621Z,5.60
2019-04-10T17:28:36.469Z,4.42
2019-04-10T17:31:08.827Z,4.28
2019-04-10T17:33:38.409Z,6.30
2019-04-10T17:36:09.790Z,3.70
2019-04-10T17:38:39.658Z,4.85
2019-04-10T17:41:09.301Z,5.28
2019-04-10T17:43:39.027Z,9.25
2019-04-10T17:46:09.213Z,4.62
2019-04-10T17:48:40.238Z,4.35
2019-04-10T17:51:10.306Z,4.20
2019-04-10T17:53:40.126Z,6.42
2019-04-10T17:56:11.736Z,5.25
2019-04-10T17:58:41.623Z,3.70
2019-04-10T18:01:12.985Z,5.22
2019-04-10T18:03:51.767Z,5.37
2019-04-10T18:06:17.345Z,5.53
2019-04-10T18:08:49.277Z,6.45
2019-04-10T18:11:20.100Z,4.17
2019-04-10T18:13:51.100Z,4.58
2019-04-10T18:16:21.992Z,4.72
2019-04-10T18:18:52.020Z,4.30
2019-04-10T18:21:22.419Z,4.20
2019-04-10T18:23:52.212Z,10.20
2019-04-10T18:26:21.926Z,8.15
2019-04-10T18:28:51.991Z,8.48
2019-04-10T18:31:25.164Z,7.95
2019-04-10T18:33:55.103Z,7.62
2019-04-10T18:36:24.888Z,5.20
2019-04-10T18:38:54.541Z,6.20
2019-04-10T18:41:25.135Z,6.22
2019-04-10T18:43:54.944Z,6.78
2019-04-10T18:46:24.607Z,8.78
2019-04-10T18:48:54.940Z,5.75
2019-04-10T18:51:25.807Z,6.00
2019-04-10T18:53:55.463Z,5.22
2019-04-10T18:56:25.130Z,9.35
2019-04-10T18:59:02.639Z,6.08
2019-04-10T19:01:39.069Z,5.37
2019-04-10T19:04:10.511Z,5.97
2019-04-10T19:06:47.466Z,5.85
2019-04-10T19:09:24.705Z,7.65
2019-04-10T19:11:50.601Z,10.32
2019-04-10T19:14:20.739Z,7.65
2019-04-10T19:16:50.518Z,5.83
2019-04-10T19:19:20.455Z,7.53
2019-04-10T19:21:50.204Z,10.72
2019-04-10T19:24:21.929Z,17.70
2019-04-10T19:26:51.701Z,8.33
2019-04-10T19:29:21.487Z,8.43
2019-04-10T19:31:52.687Z,8.70
2019-04-10T19:34:23.348Z,8.35
2019-04-10T19:36:54.325Z,8.80
2019-04-10T19:39:24.496Z,10.18
2019-04-10T19:41:55.800Z,12.75
2019-04-10T19:44:26.634Z,11.40
2019-04-10T19:46:57.682Z,11.12
2019-04-10T19:49:28.507Z,17.50
2019-04-10T19:51:58.197Z,11.30
2019-04-10T19:54:28.306Z,12.58
2019-04-10T19:56:59.117Z,16.10
2019-04-10T19:59:28.859Z,10.18
2019-04-10T20:01:58.588Z,13.10
2019-04-10T20:04:28.448Z,15.58
2019-04-10T20:06:58.214Z,13.10
2019-04-10T20:09:28.458Z,13.62
2019-04-10T20:11:58.245Z,12.63
2019-04-10T20:14:28.429Z,15.48
2019-04-10T20:16:58.244Z,11.93
2019-04-10T20:19:28.680Z,13.88
2019-04-10T20:21:58.583Z,13.55
2019-04-10T20:24:29.183Z,14.03
2019-04-10T20:26:59.420Z,13.10
2019-04-10T20:29:30.856Z,13.07
2019-04-10T20:32:01.647Z,13.98
2019-04-10T20:34:31.661Z,12.88
2019-04-10T20:37:06.602Z,15.03
2019-04-10T20:39:33.565Z,18.42
2019-04-10T20:42:03.352Z,15.95
2019-04-10T20:44:32.920Z,17.00
2019-04-10T20:47:02.674Z,12.90
2019-04-10T20:49:32.249Z,12.58
2019-04-10T20:52:02.075Z,10.75
2019-04-10T20:54:32.868Z,9.38
2019-04-10T20:57:03.360Z,14.43
2019-04-10T20:59:37.163Z,11.53
2019-04-10T21:02:07.795Z,11.40
2019-04-10T21:04:37.507Z,10.32
2019-04-10T21:07:07.215Z,9.70
2019-04-10T21:09:36.970Z,11.05
2019-04-10T21:12:10.493Z,11.03
2019-04-10T21:14:38.024Z,11.88
2019-04-10T21:17:08.710Z,11.63
2019-04-10T21:19:38.422Z,9.25
2019-04-10T21:22:08.232Z,13.03
2019-04-10T21:24:37.919Z,11.20
2019-04-10T21:27:09.236Z,9.23
2019-04-10T21:29:52.725Z,10.18
2019-04-10T21:32:30.328Z,13.10
2019-04-10T21:35:02.097Z,12.03
2019-04-10T21:37:32.629Z,9.65
2019-04-10T21:40:02.781Z,12.90
2019-04-10T21:42:33.640Z,11.63
2019-04-10T21:45:07.415Z,11.33
2019-04-10T21:47:37.630Z,11.68
2019-04-10T21:50:09.181Z,11.95
2019-04-10T21:52:39.306Z,13.38
2019-04-10T21:55:08.976Z,15.15
2019-04-10T21:57:38.623Z,14.10
2019-04-10T22:00:12.298Z,14.33
2019-04-10T22:02:44.975Z,12.58
2019-04-10T22:05:16.339Z,13.10
2019-04-10T22:07:54.603Z,14.75
2019-04-10T22:10:28.712Z,14.43
2019-04-10T22:13:01.575Z,13.60
2019-04-10T22:15:37.438Z,15.15
2019-04-10T22:18:09.406Z,14.40
2019-04-10T22:20:47.989Z,13.58
2019-04-10T22:23:19.989Z,13.95
2019-04-10T22:25:50.149Z,18.17
2019-04-10T22:28:19.797Z,16.17
2019-04-10T22:30:53.066Z,14.73
2019-04-10T22:33:22.700Z,17.62
2019-04-10T22:35:54.070Z,15.68
2019-04-10T22:38:23.676Z,12.25
2019-04-10T22:40:53.860Z,13.88
2019-04-10T22:43:24.781Z,14.43
2019-04-10T22:45:57.000Z,14.63
2019-04-10T22:48:26.967Z,15.85
2019-04-10T22:51:01.256Z,15.38
2019-04-10T22:53:33.123Z,15.65
2019-04-10T22:56:04.733Z,16.25
2019-04-10T22:58:35.115Z,15.48
2019-04-10T23:01:05.463Z,16.45
2019-04-10T23:03:35.103Z,14.63
2019-04-10T23:06:04.938Z,12.90
2019-04-10T23:08:35.735Z,16.27
2019-04-10T23:11:05.742Z,14.95
2019-04-10T23:13:36.188Z,14.90
2019-04-10T23:16:16.007Z,14.10
2019-04-10T23:18:45.695Z,14.58
2019-04-10T23:21:16.571Z,16.07
2019-04-10T23:23:47.513Z,18.35
2019-04-10T23:26:17.606Z,20.50
2019-04-10T23:28:47.477Z,16.60
2019-04-10T23:31:17.335Z,19.12
2019-04-10T23:33:48.188Z,18.12
2019-04-10T23:36:18.161Z,21.80
2019-04-10T23:38:48.034Z,23.87
2019-04-10T23:41:17.781Z,20.95
2019-04-10T23:43:48.173Z,19.85
2019-04-10T23:46:18.105Z,20.75
2019-04-10T23:48:48.849Z,23.62
2019-04-10T23:51:19.012Z,23.38
2019-04-10T23:53:48.995Z,24.98
2019-04-10T23:56:19.863Z,20.48
2019-04-10T23:58:50.668Z,22.55
